»·PEaware :: SHTGN22 KNTD-KLSV

SHTGN22 :: KNTD-KLSV

FLIGHT INFORMATION

Flight Status: Arrived
Operator: Unknown
More flights by this operator :: More flights under this callsign
Pilot: Sean B. (13609)
Aircraft: MCDONNELL-DOUGLAS FA-18 HORNET
(F18)
More flights by this aircraft type
Origin: KNTD Point Mugu NAS
United States
Destination: KLSV Nellis AFB
United States
More flights between these airports :: More routes between these airports
Route: +DOYLE9 SXC SLI POM V394 DAG V587 BLD
File this flight plan on PilotEdge
Remarks:
Altitude:
(Current/Filed)
35,000ft
Speed:
(Current/Filed)
500kts
Departed: 22-Oct-17 11:35 AM
Arrived: 22-Oct-17 12:20 PM
Distance/Time
Traveled:
236nm/0:45
Distance/Time
To Go:
Arrived

Flight Plot

Page will automatically refresh every two minutes.

Flight plan parsing failed; only flown route is shown


Map Options




Map Legend


Flown Route
Filed Route
Departure Airport
Arrival Airport
Navaid (VOR, NDB)
Fix

Horizontal Profiles

Position Reports

Time Latitude Longitude Heading Altitude Ground
Speed
22-Oct-17 11:01 34.121810 -119.112265 190 17ft 0kts
22-Oct-17 11:02 34.121810 -119.112265 190 17ft 0kts
22-Oct-17 11:03 34.121810 -119.112265 190 17ft 0kts
22-Oct-17 11:04 34.121810 -119.112265 190 17ft 0kts
22-Oct-17 11:05 34.121810 -119.112265 190 17ft 0kts
22-Oct-17 11:06 34.121810 -119.112265 190 17ft 0kts
22-Oct-17 11:07 34.121810 -119.112265 190 17ft 0kts
22-Oct-17 11:08 34.121810 -119.112265 190 17ft 0kts
22-Oct-17 11:09 34.121810 -119.112265 190 17ft 0kts
22-Oct-17 11:10 34.121810 -119.112265 190 17ft 0kts
22-Oct-17 11:11 34.121810 -119.112265 190 17ft 0kts
22-Oct-17 11:12 34.121810 -119.112265 190 17ft 0kts
22-Oct-17 11:13 34.121810 -119.112265 190 17ft 0kts
22-Oct-17 11:14 34.121810 -119.112265 190 17ft 0kts
22-Oct-17 11:15 34.121810 -119.112265 190 17ft 0kts
22-Oct-17 11:16 34.121810 -119.112265 190 17ft 0kts
22-Oct-17 11:17 34.121810 -119.112265 190 17ft 0kts
22-Oct-17 11:18 34.121810 -119.112265 190 17ft 0kts
22-Oct-17 11:19 34.121810 -119.112265 190 17ft 0kts
22-Oct-17 11:20 34.121810 -119.112265 190 17ft 0kts
22-Oct-17 11:21 34.121810 -119.112265 190 17ft 0kts
22-Oct-17 11:22 34.121810 -119.112265 190 17ft 0kts
22-Oct-17 11:23 34.121810 -119.112265 190 17ft 0kts
22-Oct-17 11:24 34.121810 -119.112265 190 17ft 0kts
22-Oct-17 11:25 34.121810 -119.112265 190 17ft 0kts
22-Oct-17 11:26 34.121810 -119.112265 190 17ft 0kts
22-Oct-17 11:27 34.122366 -119.113487 298 18ft 11kts
22-Oct-17 11:28 34.124695 -119.113464 43 18ft 15kts
22-Oct-17 11:29 34.128273 -119.109360 43 17ft 17kts
22-Oct-17 11:30 34.129281 -119.107997 313 17ft 0kts
22-Oct-17 11:31 34.129281 -119.107997 313 17ft 0kts
22-Oct-17 11:32 34.129281 -119.107997 313 17ft 0kts
22-Oct-17 11:33 34.129281 -119.107997 313 17ft 0kts
22-Oct-17 11:34 34.129281 -119.107997 313 17ft 0kts
22-Oct-17 11:35 34.129281 -119.107997 313 17ft 0kts
22-Oct-17 11:36 34.129281 -119.107997 313 17ft 0kts
22-Oct-17 11:37 34.129281 -119.107997 313 17ft 0kts
22-Oct-17 11:38 34.129281 -119.107997 313 17ft 0kts
22-Oct-17 11:39 34.130027 -119.108966 307 17ft 13kts
22-Oct-17 11:40 34.103687 -119.127903 166 1181ft 278kts
22-Oct-17 11:41 34.030817 -119.111931 175 4039ft 279kts
22-Oct-17 11:42 33.955998 -119.103962 173 3986ft 269kts
22-Oct-17 11:43 33.883070 -119.096377 174 5512ft 286kts
22-Oct-17 11:44 33.802140 -119.088014 174 7887ft 305kts
22-Oct-17 11:45 33.731341 -119.045806 118 8463ft 300kts
22-Oct-17 11:46 33.725086 -118.933871 84 12667ft 439kts
22-Oct-17 11:47 33.730573 -118.802271 97 17581ft 421kts
22-Oct-17 11:48 33.656389 -118.691805 143 20275ft 447kts
22-Oct-17 11:49 33.569194 -118.618088 146 22997ft 452kts
22-Oct-17 11:50 33.495847 -118.506650 94 24526ft 501kts
22-Oct-17 11:51 33.563462 -118.384077 32 28411ft 489kts
22-Oct-17 11:52 33.659437 -118.298007 38 31691ft 492kts
22-Oct-17 11:53 33.751688 -118.190433 44 34603ft 494kts
22-Oct-17 11:54 33.845959 -118.075324 42 35289ft 525kts
22-Oct-17 11:55 33.946580 -117.954947 43 35215ft 538kts
22-Oct-17 11:56 34.047491 -117.829846 45 35259ft 537kts
22-Oct-17 11:57 34.145568 -117.702175 45 35159ft 539kts
22-Oct-17 11:58 34.241796 -117.569260 47 35190ft 539kts
22-Oct-17 11:59 34.337375 -117.436187 46 35423ft 537kts
22-Oct-17 12:00 34.433184 -117.306848 47 35351ft 539kts
22-Oct-17 12:01 34.528893 -117.172552 47 35378ft 539kts
22-Oct-17 12:02 34.622956 -117.043895 47 34066ft 504kts
22-Oct-17 12:03 34.717261 -116.915546 46 33000ft 543kts
22-Oct-17 12:04 34.814709 -116.779934 45 30010ft 552kts
22-Oct-17 12:05 34.915794 -116.645055 47 26125ft 566kts
22-Oct-17 12:06 35.002472 -116.493897 64 24343ft 569kts
22-Oct-17 12:07 35.070447 -116.330236 59 24517ft 571kts
22-Oct-17 12:08 35.138464 -116.172187 62 24386ft 574kts
22-Oct-17 12:09 35.210442 -116.005263 59 22704ft 573kts
22-Oct-17 12:10 35.287753 -115.839697 59 20796ft 577kts
22-Oct-17 12:11 35.382589 -115.689406 45 19315ft 577kts
22-Oct-17 12:12 35.488587 -115.546820 46 17245ft 584kts
22-Oct-17 12:13 35.592979 -115.406069 46 14457ft 583kts
22-Oct-17 12:14 35.695935 -115.264855 48 13043ft 588kts
22-Oct-17 12:15 35.799736 -115.120339 47 13087ft 585kts
22-Oct-17 12:16 35.905627 -114.981076 45 13098ft 585kts
22-Oct-17 12:17 36.011603 -114.840121 47 13197ft 586kts
22-Oct-17 12:18 36.115228 -114.698130 32 13097ft 579kts
22-Oct-17 12:19 36.229841 -114.784183 292 12243ft 570kts
22-Oct-17 12:20 36.265359 -114.879457 329 6865ft 256kts
22-Oct-17 12:21 36.320398 -114.937753 256 5114ft 277kts
22-Oct-17 12:22 36.265997 -115.004084 221 3142ft 279kts
22-Oct-17 12:23 36.255122 -115.041475 45 2577ft 215kts
22-Oct-17 12:24 36.245219 -115.026964 221 1871ft 141kts
22-Oct-17 12:25 36.227102 -115.046427 231 1854ft 15kts
22-Oct-17 12:26 36.227448 -115.047620 311 1854ft 6kts
22-Oct-17 12:27 36.228247 -115.048765 220 1854ft 0kts
22-Oct-17 12:28 36.228247 -115.048765 220 1854ft 0kts

Navigation Log

Ident Type
Flight plan parsing failed, navigation log unavailable